createdAt,value
2023-01-09T00:01:00.814Z,19.90
2023-01-09T00:03:41.957Z,19.20
2023-01-09T00:06:23.844Z,29.70
2023-01-09T00:09:04.948Z,20.60
2023-01-09T00:11:45.828Z,19.60
2023-01-09T00:14:34.816Z,17.70
2023-01-09T00:17:09.304Z,18.00
2023-01-09T00:19:57.823Z,22.80
2023-01-09T00:22:32.261Z,28.90
2023-01-09T00:25:19.842Z,17.50
2023-01-09T00:27:54.276Z,18.30
2023-01-09T00:30:42.859Z,20.90
2023-01-09T00:33:23.814Z,18.30
2023-01-09T00:36:11.806Z,18.80
2023-01-09T00:38:46.240Z,17.60
2023-01-09T00:41:37.812Z,20.30
2023-01-09T00:44:18.521Z,20.60
2023-01-09T00:47:10.812Z,20.90
2023-01-09T00:49:52.804Z,19.70
2023-01-09T00:52:36.062Z,18.60
2023-01-09T00:55:17.807Z,16.90
2023-01-09T00:57:58.961Z,17.30
2023-01-09T01:00:39.811Z,17.10
2023-01-09T01:03:20.946Z,15.20
2023-01-09T01:06:20.829Z,16.60
2023-01-09T01:09:02.131Z,15.10
2023-01-09T01:11:43.816Z,19.50
2023-01-09T01:14:24.940Z,16.10
2023-01-09T01:17:13.808Z,16.70
2023-01-09T01:19:55.799Z,15.50
2023-01-09T01:22:50.826Z,16.20
2023-01-09T01:25:38.804Z,16.50
2023-01-09T01:28:14.932Z,18.00
2023-01-09T01:31:02.884Z,16.80
2023-01-09T01:33:38.935Z,17.00
2023-01-09T01:36:27.009Z,17.30
2023-01-09T01:39:08.806Z,16.00
2023-01-09T01:41:50.403Z,17.00
2023-01-09T01:45:17.799Z,19.20
2023-01-09T01:47:57.576Z,17.30
2023-01-09T01:50:50.812Z,15.30
2023-01-09T01:56:25.973Z,17.10
2023-01-09T01:59:24.802Z,15.30
2023-01-09T02:02:08.350Z,21.80
2023-01-09T02:04:51.823Z,17.70
2023-01-09T02:07:32.947Z,17.30
2023-01-09T02:10:14.816Z,19.20
2023-01-09T02:12:56.963Z,19.00
2023-01-09T02:16:17.895Z,18.10
2023-01-09T02:19:02.125Z,17.80
2023-01-09T02:21:55.799Z,18.70
2023-01-09T02:24:54.921Z,19.30
2023-01-09T02:30:49.910Z,16.30
2023-01-09T02:34:09.982Z,15.90
2023-01-09T02:37:20.795Z,17.10
2023-01-09T02:40:15.797Z,16.40
2023-01-09T02:43:05.800Z,16.80
2023-01-09T02:45:41.004Z,16.00
2023-01-09T02:48:28.792Z,21.80
2023-01-09T02:51:05.914Z,16.60
2023-01-09T02:54:22.802Z,17.00
2023-01-09T02:57:19.997Z,17.60
2023-01-09T03:00:27.792Z,14.90
2023-01-09T03:03:07.975Z,17.70
2023-01-09T03:06:03.788Z,18.30
2023-01-09T03:08:44.928Z,16.90
2023-01-09T03:11:35.777Z,16.50
2023-01-09T03:14:14.945Z,17.80
2023-01-09T03:17:07.952Z,22.40
2023-01-09T03:19:56.804Z,17.10
2023-01-09T03:22:31.426Z,16.60
2023-01-09T03:25:21.793Z,17.60
2023-01-09T03:28:15.486Z,16.10
2023-01-09T03:31:09.797Z,15.80
2023-01-09T03:33:44.514Z,15.60
2023-01-09T03:36:35.979Z,17.80
2023-01-09T03:39:11.381Z,18.30
2023-01-09T03:42:00.994Z,16.50
2023-01-09T03:44:36.181Z,18.80
2023-01-09T03:47:23.792Z,15.50
2023-01-09T03:49:58.325Z,17.50
2023-01-09T03:52:46.831Z,15.80
2023-01-09T03:55:21.195Z,17.20
2023-01-09T03:58:09.940Z,14.00
2023-01-09T04:00:46.333Z,21.30
2023-01-09T04:03:34.832Z,27.60
2023-01-09T04:06:15.802Z,39.50
2023-01-09T04:09:03.787Z,49.20
2023-01-09T04:11:38.181Z,38.50
2023-01-09T04:14:25.788Z,29.20
2023-01-09T04:17:06.771Z,33.20
2023-01-09T04:19:47.919Z,26.40
2023-01-09T04:22:28.766Z,20.20
2023-01-09T04:25:09.964Z,19.50
2023-01-09T04:27:50.791Z,24.60
2023-01-09T04:30:45.786Z,32.90
2023-01-09T04:33:33.975Z,33.90
2023-01-09T04:36:17.787Z,32.40
2023-01-09T04:39:12.784Z,39.00
2023-01-09T04:42:00.771Z,31.90
2023-01-09T04:44:35.926Z,22.10
2023-01-09T04:47:23.847Z,21.00
2023-01-09T04:49:59.142Z,20.70
2023-01-09T04:52:47.784Z,19.20
2023-01-09T04:55:22.901Z,27.10
2023-01-09T04:58:10.948Z,29.50
2023-01-09T05:00:52.831Z,28.00
2023-01-09T05:03:47.754Z,22.70
2023-01-09T05:06:35.779Z,28.80
2023-01-09T05:09:17.774Z,27.80
2023-01-09T05:12:12.778Z,18.40
2023-01-09T05:15:07.769Z,24.00
2023-01-09T05:17:49.372Z,20.60
2023-01-09T05:20:37.927Z,17.90
2023-01-09T05:23:32.754Z,34.20
2023-01-09T05:26:20.775Z,22.80
2023-01-09T05:29:05.746Z,20.40
2023-01-09T05:32:00.787Z,18.90
2023-01-09T05:34:55.818Z,18.60
2023-01-09T05:37:43.832Z,18.20
2023-01-09T05:40:18.904Z,17.80
2023-01-09T05:43:06.763Z,16.20
2023-01-09T05:45:41.933Z,16.00
2023-01-09T05:48:29.764Z,15.80
2023-01-09T05:51:04.903Z,15.40
2023-01-09T05:53:52.758Z,13.10
2023-01-09T05:56:27.959Z,17.10
2023-01-09T05:59:15.775Z,14.60
2023-01-09T06:01:57.803Z,15.60
2023-01-09T06:04:52.768Z,13.30
2023-01-09T06:07:43.751Z,12.40
2023-01-09T06:10:27.776Z,13.10
2023-01-09T06:13:15.771Z,17.40
2023-01-09T06:15:57.791Z,18.40
2023-01-09T06:18:45.749Z,33.00
2023-01-09T06:21:27.744Z,21.90
2023-01-09T06:24:22.768Z,41.50
2023-01-09T06:27:19.761Z,64.90
2023-01-09T06:30:14.776Z,55.40
2023-01-09T06:33:09.743Z,26.40
2023-01-09T06:35:57.762Z,37.80
2023-01-09T06:38:39.766Z,23.50
2023-01-09T06:41:34.738Z,24.80
2023-01-09T06:44:22.760Z,19.00
2023-01-09T06:46:57.947Z,20.70
2023-01-09T06:49:45.756Z,10.70
2023-01-09T06:52:26.758Z,13.20
2023-01-09T06:55:21.769Z,23.50
2023-01-09T06:58:09.749Z,20.80
2023-01-09T07:00:44.866Z,18.90
2023-01-09T07:03:33.862Z,23.10
2023-01-09T07:06:15.747Z,16.10
2023-01-09T07:09:10.755Z,20.60
2023-01-09T07:11:58.774Z,15.20
2023-01-09T07:14:34.477Z,11.70
2023-01-09T07:17:22.768Z,13.30
2023-01-09T07:19:57.958Z,16.80
2023-01-09T07:22:45.791Z,13.10
2023-01-09T07:25:27.785Z,18.90
2023-01-09T07:28:22.751Z,14.10
2023-01-09T07:31:17.800Z,15.30
2023-01-09T07:34:12.753Z,13.60
2023-01-09T07:37:00.750Z,17.30
2023-01-09T07:39:35.968Z,17.90
2023-01-09T07:42:23.804Z,14.60
2023-01-09T07:44:58.940Z,16.60
2023-01-09T07:47:48.821Z,20.40
2023-01-09T07:50:30.819Z,19.40
2023-01-09T07:53:18.755Z,19.10
2023-01-09T07:56:00.863Z,17.20
2023-01-09T07:58:55.760Z,35.60
2023-01-09T08:01:47.861Z,19.20
2023-01-09T08:04:23.110Z,15.20
2023-01-09T08:07:10.952Z,12.00
2023-01-09T08:09:53.467Z,14.00
2023-01-09T08:12:48.725Z,15.40
2023-01-09T08:15:37.875Z,17.20
2023-01-09T08:18:24.579Z,18.20
2023-01-09T08:21:12.771Z,10.20
2023-01-09T08:23:47.863Z,12.60
2023-01-09T08:26:35.760Z,11.30
2023-01-09T08:29:10.920Z,13.10
2023-01-09T08:31:58.750Z,11.40
2023-01-09T08:34:46.779Z,11.20
2023-01-09T08:37:27.850Z,10.70
2023-01-09T08:40:15.795Z,10.70
2023-01-09T08:43:09.766Z,13.60
2023-01-09T08:46:35.952Z,10.40
2023-01-09T08:49:11.152Z,11.70
2023-01-09T08:51:58.867Z,11.00
2023-01-09T08:54:46.904Z,13.80
2023-01-09T08:57:22.044Z,16.50
2023-01-09T09:00:11.725Z,18.10
2023-01-09T09:02:46.073Z,11.90
2023-01-09T09:05:34.760Z,14.60
2023-01-09T09:08:09.854Z,12.60
2023-01-09T09:10:57.832Z,12.50
2023-01-09T09:13:39.740Z,11.20
2023-01-09T09:16:34.729Z,8.10
2023-01-09T09:19:22.726Z,9.90
2023-01-09T09:21:57.899Z,7.00
2023-01-09T09:24:45.747Z,10.60
2023-01-09T09:27:27.740Z,9.00
2023-01-09T09:30:16.745Z,12.30
2023-01-09T09:33:04.766Z,9.80
2023-01-09T09:35:39.168Z,9.90
2023-01-09T09:38:26.764Z,11.10
2023-01-09T09:41:35.138Z,10.00
2023-01-09T09:44:54.069Z,10.40
2023-01-09T09:47:46.067Z,13.50
2023-01-09T09:50:39.796Z,12.40
2023-01-09T09:53:25.871Z,11.30
2023-01-09T09:56:13.728Z,24.00
2023-01-09T09:59:00.431Z,23.10
2023-01-09T10:01:55.239Z,18.00
2023-01-09T10:04:32.667Z,21.90
2023-01-09T10:07:28.733Z,24.80
2023-01-09T10:10:06.059Z,14.00
2023-01-09T10:13:05.730Z,17.00
2023-01-09T10:15:54.861Z,15.60
2023-01-09T10:19:25.735Z,8.60
2023-01-09T10:22:18.614Z,16.40
2023-01-09T10:25:09.823Z,12.90
2023-01-09T10:28:26.469Z,11.10
2023-01-09T10:31:53.728Z,10.10
2023-01-09T10:35:20.858Z,12.60
2023-01-09T10:38:11.718Z,9.20
2023-01-09T10:41:04.101Z,14.10
2023-01-09T10:43:48.748Z,9.20
2023-01-09T10:46:37.461Z,12.80
2023-01-09T10:49:22.779Z,14.10
2023-01-09T10:52:21.062Z,13.80
2023-01-09T10:55:04.760Z,10.60
2023-01-09T10:57:51.910Z,11.00
2023-01-09T11:00:33.715Z,8.70
2023-01-09T11:03:30.115Z,14.90
2023-01-09T11:06:24.716Z,15.00
2023-01-09T11:09:07.902Z,15.10
2023-01-09T11:11:48.733Z,12.10
2023-01-09T11:14:33.890Z,16.00
2023-01-09T11:17:26.015Z,9.00
2023-01-09T11:20:13.869Z,13.00
2023-01-09T11:23:04.728Z,9.90
2023-01-09T11:25:46.836Z,10.30
2023-01-09T11:28:42.734Z,7.60
2023-01-09T11:31:31.829Z,8.10
2023-01-09T11:34:06.942Z,8.70
2023-01-09T11:36:54.835Z,9.30
2023-01-09T11:39:38.697Z,14.70
2023-01-09T11:43:03.735Z,12.50
2023-01-09T11:45:43.951Z,9.50
2023-01-09T11:48:55.726Z,13.30
2023-01-09T11:51:50.154Z,11.50
2023-01-09T11:54:39.723Z,8.20
2023-01-09T11:57:47.164Z,10.90
2023-01-09T12:00:34.696Z,9.90
2023-01-09T12:03:17.076Z,7.50
2023-01-09T12:10:25.728Z,11.20
2023-01-09T12:13:39.252Z,8.80
2023-01-09T12:20:54.145Z,7.10
2023-01-09T12:24:31.746Z,7.30
2023-01-09T12:27:08.930Z,7.70
2023-01-09T12:30:14.783Z,8.90
2023-01-09T12:33:14.815Z,8.40
2023-01-09T12:36:18.116Z,7.60
2023-01-09T12:39:01.944Z,9.30
2023-01-09T12:41:54.720Z,9.00
2023-01-09T12:45:01.784Z,12.50
2023-01-09T12:48:02.724Z,7.10
2023-01-09T12:51:15.745Z,11.30
2023-01-09T12:54:03.782Z,15.30
2023-01-09T12:57:56.709Z,11.70
2023-01-09T13:00:51.897Z,13.10
2023-01-09T13:03:44.710Z,14.10
2023-01-09T13:06:27.949Z,8.60
2023-01-09T13:09:18.838Z,10.70
2023-01-09T13:12:28.719Z,11.40
2023-01-09T13:15:13.701Z,12.60
2023-01-09T13:18:01.997Z,9.60
2023-01-09T13:20:49.719Z,9.90
2023-01-09T13:23:33.974Z,12.60
2023-01-09T13:26:44.754Z,19.80
2023-01-09T13:29:29.838Z,12.70
2023-01-09T13:32:21.747Z,10.80
2023-01-09T13:35:02.967Z,8.40
2023-01-09T13:37:57.258Z,6.60
2023-01-09T13:40:34.946Z,8.00
2023-01-09T13:43:23.699Z,6.10
2023-01-09T13:46:00.481Z,8.10
2023-01-09T13:48:48.761Z,5.90
2023-01-09T13:51:51.715Z,6.80
2023-01-09T13:55:02.756Z,5.50
2023-01-09T13:58:21.815Z,27.70
2023-01-09T14:01:05.081Z,24.20
2023-01-09T14:03:52.776Z,36.40
2023-01-09T14:06:34.764Z,25.10
2023-01-09T14:09:31.951Z,48.10
2023-01-09T14:12:13.718Z,56.50
2023-01-09T14:15:10.777Z,43.00
2023-01-09T14:17:45.188Z,37.50
2023-01-09T14:20:40.680Z,34.00
2023-01-09T14:23:52.305Z,23.70
2023-01-09T14:26:56.949Z,12.20
2023-01-09T14:29:32.243Z,11.30
2023-01-09T14:32:40.782Z,12.60
2023-01-09T14:35:29.212Z,11.60
2023-01-09T14:41:58.784Z,9.70
2023-01-09T14:44:53.871Z,9.50
2023-01-09T14:47:48.774Z,11.40
2023-01-09T14:50:36.204Z,11.90
2023-01-09T14:53:38.707Z,15.20
2023-01-09T14:56:42.160Z,15.40
2023-01-09T14:59:40.683Z,13.00
2023-01-09T15:02:28.826Z,11.60
2023-01-09T15:05:16.732Z,10.20
2023-01-09T15:08:15.674Z,13.00
2023-01-09T15:11:11.683Z,13.80
2023-01-09T15:14:00.701Z,29.30
2023-01-09T15:16:35.849Z,15.30
2023-01-09T15:19:25.733Z,19.10
2023-01-09T15:22:40.698Z,29.80
2023-01-09T15:25:40.489Z,28.80
2023-01-09T15:28:37.690Z,19.70
2023-01-09T15:31:29.716Z,18.00
2023-01-09T15:34:24.685Z,17.50
2023-01-09T15:37:01.199Z,22.10
